sensor_id;sensor_type;location;lat;lon;timestamp;temperature;humidity
17033;DHT22;63208;52.178;21.016;2023-04-16T00:00:10;9.90;99.90
17033;DHT22;63208;52.178;21.016;2023-04-16T00:02:37;9.90;99.90
17033;DHT22;63208;52.178;21.016;2023-04-16T00:05:05;9.90;99.90
17033;DHT22;63208;52.178;21.016;2023-04-16T00:07:32;9.90;99.90
17033;DHT22;63208;52.178;21.016;2023-04-16T00:09:59;9.80;99.90
17033;DHT22;63208;52.178;21.016;2023-04-16T00:12:26;9.90;99.90
17033;DHT22;63208;52.178;21.016;2023-04-16T00:14:52;9.90;99.90
17033;DHT22;63208;52.178;21.016;2023-04-16T00:17:19;10.00;99.90
17033;DHT22;63208;52.178;21.016;2023-04-16T00:19:46;9.90;99.90
17033;DHT22;63208;52.178;21.016;2023-04-16T00:22:14;10.00;99.90
17033;DHT22;63208;52.178;21.016;2023-04-16T00:24:40;9.80;99.90
17033;DHT22;63208;52.178;21.016;2023-04-16T00:27:07;9.80;99.90
17033;DHT22;63208;52.178;21.016;2023-04-16T00:29:34;9.80;99.90
17033;DHT22;63208;52.178;21.016;2023-04-16T00:32:00;10.00;99.90
17033;DHT22;63208;52.178;21.016;2023-04-16T00:34:27;9.90;99.90
17033;DHT22;63208;52.178;21.016;2023-04-16T00:36:54;9.80;99.90
17033;DHT22;63208;52.178;21.016;2023-04-16T00:39:22;9.80;99.90
17033;DHT22;63208;52.178;21.016;2023-04-16T00:41:49;9.80;99.90
17033;DHT22;63208;52.178;21.016;2023-04-16T00:44:15;9.80;99.90
17033;DHT22;63208;52.178;21.016;2023-04-16T00:46:42;9.80;99.90
17033;DHT22;63208;52.178;21.016;2023-04-16T00:49:09;9.90;99.90
17033;DHT22;63208;52.178;21.016;2023-04-16T00:51:36;10.30;99.90
17033;DHT22;63208;52.178;21.016;2023-04-16T00:54:03;9.60;99.90
17033;DHT22;63208;52.178;21.016;2023-04-16T00:56:31;9.70;99.90
17033;DHT22;63208;52.178;21.016;2023-04-16T00:58:58;9.60;99.90
17033;DHT22;63208;52.178;21.016;2023-04-16T01:01:25;9.70;99.90
17033;DHT22;63208;52.178;21.016;2023-04-16T01:03:52;9.70;99.90
17033;DHT22;63208;52.178;21.016;2023-04-16T01:06:18;9.70;99.90
17033;DHT22;63208;52.178;21.016;2023-04-16T01:08:46;9.60;99.90
17033;DHT22;63208;52.178;21.016;2023-04-16T01:11:13;9.70;99.90
17033;DHT22;63208;52.178;21.016;2023-04-16T01:13:41;9.60;99.90
17033;DHT22;63208;52.178;21.016;2023-04-16T01:16:08;11.90;99.90
17033;DHT22;63208;52.178;21.016;2023-04-16T01:18:36;9.50;99.90
17033;DHT22;63208;52.178;21.016;2023-04-16T01:21:04;9.50;99.90
17033;DHT22;63208;52.178;21.016;2023-04-16T01:23:31;9.60;99.90
17033;DHT22;63208;52.178;21.016;2023-04-16T01:25:58;8.40;99.90
17033;DHT22;63208;52.178;21.016;2023-04-16T01:28:24;9.50;99.90
17033;DHT22;63208;52.178;21.016;2023-04-16T01:30:51;9.50;99.90
17033;DHT22;63208;52.178;21.016;2023-04-16T01:33:18;9.60;99.90
17033;DHT22;63208;52.178;21.016;2023-04-16T01:35:44;9.50;99.90
17033;DHT22;63208;52.178;21.016;2023-04-16T01:38:13;9.60;99.90
17033;DHT22;63208;52.178;21.016;2023-04-16T01:40:39;9.60;99.90
17033;DHT22;63208;52.178;21.016;2023-04-16T01:43:06;9.60;99.90
17033;DHT22;63208;52.178;21.016;2023-04-16T01:45:33;9.60;99.90
17033;DHT22;63208;52.178;21.016;2023-04-16T01:48:00;9.60;99.90
17033;DHT22;63208;52.178;21.016;2023-04-16T01:50:27;9.60;99.90
17033;DHT22;63208;52.178;21.016;2023-04-16T01:52:55;9.60;99.90
17033;DHT22;63208;52.178;21.016;2023-04-16T01:55:23;9.50;99.90
17033;DHT22;63208;52.178;21.016;2023-04-16T01:57:51;9.60;99.90
17033;DHT22;63208;52.178;21.016;2023-04-16T02:00:17;9.60;99.90
17033;DHT22;63208;52.178;21.016;2023-04-16T02:02:44;9.60;99.90
17033;DHT22;63208;52.178;21.016;2023-04-16T02:05:11;9.60;99.90
17033;DHT22;63208;52.178;21.016;2023-04-16T02:07:38;9.50;99.90
17033;DHT22;63208;52.178;21.016;2023-04-16T02:10:05;9.50;99.90
17033;DHT22;63208;52.178;21.016;2023-04-16T02:12:34;9.40;99.90
17033;DHT22;63208;52.178;21.016;2023-04-16T02:15:01;9.50;99.90
17033;DHT22;63208;52.178;21.016;2023-04-16T02:17:28;9.50;99.90
17033;DHT22;63208;52.178;21.016;2023-04-16T02:19:54;9.60;99.90
17033;DHT22;63208;52.178;21.016;2023-04-16T02:22:21;9.60;99.90
17033;DHT22;63208;52.178;21.016;2023-04-16T02:24:48;9.50;99.90
17033;DHT22;63208;52.178;21.016;2023-04-16T02:27:15;9.50;99.90
17033;DHT22;63208;52.178;21.016;2023-04-16T02:29:43;9.40;99.90
17033;DHT22;63208;52.178;21.016;2023-04-16T02:32:10;9.50;99.90
17033;DHT22;63208;52.178;21.016;2023-04-16T02:34:37;9.50;99.90
17033;DHT22;63208;52.178;21.016;2023-04-16T02:37:04;9.50;99.90
17033;DHT22;63208;52.178;21.016;2023-04-16T02:39:31;9.50;99.90
17033;DHT22;63208;52.178;21.016;2023-04-16T02:41:57;9.40;99.90
17033;DHT22;63208;52.178;21.016;2023-04-16T02:44:26;9.40;99.90
17033;DHT22;63208;52.178;21.016;2023-04-16T02:46:54;9.60;99.90
17033;DHT22;63208;52.178;21.016;2023-04-16T02:49:21;9.40;99.90
17033;DHT22;63208;52.178;21.016;2023-04-16T02:51:48;9.50;99.90
17033;DHT22;63208;52.178;21.016;2023-04-16T02:54:15;9.40;99.90
17033;DHT22;63208;52.178;21.016;2023-04-16T02:56:41;9.40;99.90
17033;DHT22;63208;52.178;21.016;2023-04-16T02:59:08;9.40;99.90
17033;DHT22;63208;52.178;21.016;2023-04-16T03:01:35;9.40;99.90
17033;DHT22;63208;52.178;21.016;2023-04-16T03:04:03;9.40;99.90
17033;DHT22;63208;52.178;21.016;2023-04-16T03:06:29;9.40;99.90
17033;DHT22;63208;52.178;21.016;2023-04-16T03:08:57;9.50;99.90
17033;DHT22;63208;52.178;21.016;2023-04-16T03:11:23;9.50;99.90
17033;DHT22;63208;52.178;21.016;2023-04-16T03:13:50;9.50;99.90
17033;DHT22;63208;52.178;21.016;2023-04-16T03:16:18;9.40;99.90
17033;DHT22;63208;52.178;21.016;2023-04-16T03:18:44;9.40;99.90
17033;DHT22;63208;52.178;21.016;2023-04-16T03:21:12;10.00;99.90
17033;DHT22;63208;52.178;21.016;2023-04-16T03:23:39;9.50;99.90
17033;DHT22;63208;52.178;21.016;2023-04-16T03:26:06;9.50;99.90
17033;DHT22;63208;52.178;21.016;2023-04-16T03:28:33;9.50;99.90
17033;DHT22;63208;52.178;21.016;2023-04-16T03:30:59;9.50;99.90
17033;DHT22;63208;52.178;21.016;2023-04-16T03:33:26;10.30;99.90
17033;DHT22;63208;52.178;21.016;2023-04-16T03:35:56;9.50;99.90
17033;DHT22;63208;52.178;21.016;2023-04-16T03:38:24;9.40;99.90
17033;DHT22;63208;52.178;21.016;2023-04-16T03:40:51;9.50;99.90
17033;DHT22;63208;52.178;21.016;2023-04-16T03:43:18;9.50;99.90
17033;DHT22;63208;52.178;21.016;2023-04-16T03:45:45;9.50;99.90
17033;DHT22;63208;52.178;21.016;2023-04-16T03:48:11;9.50;99.90
17033;DHT22;63208;52.178;21.016;2023-04-16T03:50:38;9.50;99.90
17033;DHT22;63208;52.178;21.016;2023-04-16T03:53:05;9.40;99.90
17033;DHT22;63208;52.178;21.016;2023-04-16T03:55:34;9.40;99.90
17033;DHT22;63208;52.178;21.016;2023-04-16T03:58:01;9.40;99.90
17033;DHT22;63208;52.178;21.016;2023-04-16T04:00:29;9.40;99.90
17033;DHT22;63208;52.178;21.016;2023-04-16T04:02:56;9.40;99.90
17033;DHT22;63208;52.178;21.016;2023-04-16T04:05:22;9.50;99.90
17033;DHT22;63208;52.178;21.016;2023-04-16T04:07:49;9.50;99.90
17033;DHT22;63208;52.178;21.016;2023-04-16T04:10:16;9.50;99.90
17033;DHT22;63208;52.178;21.016;2023-04-16T04:12:44;10.50;99.90
17033;DHT22;63208;52.178;21.016;2023-04-16T04:15:11;9.50;99.90
17033;DHT22;63208;52.178;21.016;2023-04-16T04:17:37;9.50;99.90
17033;DHT22;63208;52.178;21.016;2023-04-16T04:20:05;9.50;99.90
17033;DHT22;63208;52.178;21.016;2023-04-16T04:22:32;9.50;99.90
17033;DHT22;63208;52.178;21.016;2023-04-16T04:24:58;9.50;99.90
17033;DHT22;63208;52.178;21.016;2023-04-16T04:27:25;8.00;99.90
17033;DHT22;63208;52.178;21.016;2023-04-16T04:29:55;9.50;99.90
17033;DHT22;63208;52.178;21.016;2023-04-16T04:32:22;9.50;99.90
17033;DHT22;63208;52.178;21.016;2023-04-16T04:34:48;9.60;99.90
17033;DHT22;63208;52.178;21.016;2023-04-16T04:37:15;9.60;99.90
17033;DHT22;63208;52.178;21.016;2023-04-16T04:39:42;9.60;99.90
17033;DHT22;63208;52.178;21.016;2023-04-16T04:42:09;9.70;99.90
17033;DHT22;63208;52.178;21.016;2023-04-16T04:44:35;9.70;99.90
17033;DHT22;63208;52.178;21.016;2023-04-16T04:47:03;9.70;99.90
17033;DHT22;63208;52.178;21.016;2023-04-16T04:49:30;9.70;99.90
17033;DHT22;63208;52.178;21.016;2023-04-16T04:51:57;9.70;99.90
17033;DHT22;63208;52.178;21.016;2023-04-16T04:54:24;9.80;99.90
17033;DHT22;63208;52.178;21.016;2023-04-16T04:56:50;10.20;99.90
17033;DHT22;63208;52.178;21.016;2023-04-16T04:59:18;9.80;99.90
17033;DHT22;63208;52.178;21.016;2023-04-16T05:01:45;9.80;99.90
17033;DHT22;63208;52.178;21.016;2023-04-16T05:04:13;9.80;99.90
17033;DHT22;63208;52.178;21.016;2023-04-16T05:06:40;9.80;99.90
17033;DHT22;63208;52.178;21.016;2023-04-16T05:09:07;9.70;99.90
17033;DHT22;63208;52.178;21.016;2023-04-16T05:11:35;9.70;99.90
17033;DHT22;63208;52.178;21.016;2023-04-16T05:14:02;9.70;99.90
17033;DHT22;63208;52.178;21.016;2023-04-16T05:16:29;9.80;99.90
17033;DHT22;63208;52.178;21.016;2023-04-16T05:18:55;9.80;99.90
17033;DHT22;63208;52.178;21.016;2023-04-16T05:21:24;9.80;99.90
17033;DHT22;63208;52.178;21.016;2023-04-16T05:23:51;9.80;99.90
17033;DHT22;63208;52.178;21.016;2023-04-16T05:26:18;9.90;99.90
17033;DHT22;63208;52.178;21.016;2023-04-16T05:28:45;9.90;99.90
17033;DHT22;63208;52.178;21.016;2023-04-16T05:31:12;10.00;99.90
17033;DHT22;63208;52.178;21.016;2023-04-16T05:33:38;10.00;99.90
17033;DHT22;63208;52.178;21.016;2023-04-16T05:36:05;10.10;99.90
17033;DHT22;63208;52.178;21.016;2023-04-16T05:38:34;10.10;99.90
17033;DHT22;63208;52.178;21.016;2023-04-16T05:41:00;10.10;99.90
17033;DHT22;63208;52.178;21.016;2023-04-16T05:43:27;10.10;99.90
17033;DHT22;63208;52.178;21.016;2023-04-16T05:45:54;10.10;99.90
17033;DHT22;63208;52.178;21.016;2023-04-16T05:48:21;10.10;99.90
17033;DHT22;63208;52.178;21.016;2023-04-16T05:50:48;10.10;99.90
17033;DHT22;63208;52.178;21.016;2023-04-16T05:53:14;10.10;99.90
17033;DHT22;63208;52.178;21.016;2023-04-16T05:55:44;10.10;99.90
17033;DHT22;63208;52.178;21.016;2023-04-16T05:58:11;10.20;99.90
17033;DHT22;63208;52.178;21.016;2023-04-16T06:00:38;10.10;99.90
17033;DHT22;63208;52.178;21.016;2023-04-16T06:03:04;10.20;99.90
17033;DHT22;63208;52.178;21.016;2023-04-16T06:05:31;10.10;99.90
17033;DHT22;63208;52.178;21.016;2023-04-16T06:07:58;10.20;99.90
17033;DHT22;63208;52.178;21.016;2023-04-16T06:10:25;10.30;99.90
17033;DHT22;63208;52.178;21.016;2023-04-16T06:12:53;10.20;99.90
17033;DHT22;63208;52.178;21.016;2023-04-16T06:15:23;9.80;99.90
17033;DHT22;63208;52.178;21.016;2023-04-16T06:17:49;10.30;99.90
17033;DHT22;63208;52.178;21.016;2023-04-16T06:20:16;10.30;99.90
17033;DHT22;63208;52.178;21.016;2023-04-16T06:22:43;10.30;99.90
17033;DHT22;63208;52.178;21.016;2023-04-16T06:25:09;10.40;99.90
17033;DHT22;63208;52.178;21.016;2023-04-16T06:27:36;10.40;99.90
17033;DHT22;63208;52.178;21.016;2023-04-16T06:30:09;10.40;99.90
17033;DHT22;63208;52.178;21.016;2023-04-16T06:32:36;10.30;99.90
17033;DHT22;63208;52.178;21.016;2023-04-16T06:35:03;10.20;99.90
17033;DHT22;63208;52.178;21.016;2023-04-16T06:37:30;10.20;99.90
17033;DHT22;63208;52.178;21.016;2023-04-16T06:39:57;10.20;99.90
17033;DHT22;63208;52.178;21.016;2023-04-16T06:42:24;12.70;99.90
17033;DHT22;63208;52.178;21.016;2023-04-16T06:44:50;10.20;99.90
17033;DHT22;63208;52.178;21.016;2023-04-16T06:47:19;10.20;99.90
17033;DHT22;63208;52.178;21.016;2023-04-16T06:49:45;10.30;99.90
17033;DHT22;63208;52.178;21.016;2023-04-16T06:52:12;10.40;99.90
17033;DHT22;63208;52.178;21.016;2023-04-16T06:54:39;10.50;99.90
17033;DHT22;63208;52.178;21.016;2023-04-16T06:57:06;10.40;99.90
17033;DHT22;63208;52.178;21.016;2023-04-16T06:59:32;10.40;99.90
17033;DHT22;63208;52.178;21.016;2023-04-16T07:01:59;10.40;99.90
17033;DHT22;63208;52.178;21.016;2023-04-16T07:04:27;10.50;99.90
17033;DHT22;63208;52.178;21.016;2023-04-16T07:06:54;10.60;99.90
17033;DHT22;63208;52.178;21.016;2023-04-16T07:09:21;10.60;99.90
17033;DHT22;63208;52.178;21.016;2023-04-16T07:11:48;10.70;99.90
17033;DHT22;63208;52.178;21.016;2023-04-16T07:14:14;10.70;99.90
17033;DHT22;63208;52.178;21.016;2023-04-16T07:16:41;10.70;99.90
17033;DHT22;63208;52.178;21.016;2023-04-16T07:19:08;10.70;99.90
17033;DHT22;63208;52.178;21.016;2023-04-16T07:21:36;10.50;99.90
17033;DHT22;63208;52.178;21.016;2023-04-16T07:24:03;10.70;99.90
17033;DHT22;63208;52.178;21.016;2023-04-16T07:26:30;10.70;99.90
17033;DHT22;63208;52.178;21.016;2023-04-16T07:28:57;10.70;99.90
17033;DHT22;63208;52.178;21.016;2023-04-16T07:31:24;10.70;99.90
17033;DHT22;63208;52.178;21.016;2023-04-16T07:33:50;10.70;99.90
17033;DHT22;63208;52.178;21.016;2023-04-16T07:36:17;10.80;99.90
17033;DHT22;63208;52.178;21.016;2023-04-16T07:41:42;10.80;99.90
17033;DHT22;63208;52.178;21.016;2023-04-16T07:44:09;10.70;99.90
17033;DHT22;63208;52.178;21.016;2023-04-16T07:46:36;10.30;99.90
17033;DHT22;63208;52.178;21.016;2023-04-16T07:49:03;10.90;99.90
17033;DHT22;63208;52.178;21.016;2023-04-16T07:51:29;10.90;99.90
17033;DHT22;63208;52.178;21.016;2023-04-16T07:53:57;10.90;99.90
17033;DHT22;63208;52.178;21.016;2023-04-16T07:56:23;10.90;99.90
17033;DHT22;63208;52.178;21.016;2023-04-16T07:58:51;10.90;99.90
17033;DHT22;63208;52.178;21.016;2023-04-16T08:01:18;11.00;99.90
17033;DHT22;63208;52.178;21.016;2023-04-16T08:03:45;10.90;99.90
17033;DHT22;63208;52.178;21.016;2023-04-16T08:06:12;10.80;99.90
17033;DHT22;63208;52.178;21.016;2023-04-16T08:08:38;10.80;99.90
17033;DHT22;63208;52.178;21.016;2023-04-16T08:13:46;11.00;99.90
17033;DHT22;63208;52.178;21.016;2023-04-16T08:16:18;11.10;99.90
17033;DHT22;63208;52.178;21.016;2023-04-16T08:18:47;11.10;99.90
17033;DHT22;63208;52.178;21.016;2023-04-16T08:21:14;11.20;99.90
17033;DHT22;63208;52.178;21.016;2023-04-16T08:23:41;11.30;99.90
17033;DHT22;63208;52.178;21.016;2023-04-16T08:26:17;11.40;99.90
17033;DHT22;63208;52.178;21.016;2023-04-16T08:28:43;11.50;99.90
17033;DHT22;63208;52.178;21.016;2023-04-16T08:31:10;11.50;99.90
17033;DHT22;63208;52.178;21.016;2023-04-16T08:33:38;11.70;99.90
17033;DHT22;63208;52.178;21.016;2023-04-16T08:36:07;11.70;99.90
17033;DHT22;63208;52.178;21.016;2023-04-16T08:38:34;11.80;99.90
17033;DHT22;63208;52.178;21.016;2023-04-16T08:41:02;11.80;99.90
17033;DHT22;63208;52.178;21.016;2023-04-16T08:43:29;11.90;99.90
17033;DHT22;63208;52.178;21.016;2023-04-16T08:45:56;11.90;99.90
17033;DHT22;63208;52.178;21.016;2023-04-16T08:48:23;11.90;99.90
17033;DHT22;63208;52.178;21.016;2023-04-16T08:50:52;11.90;99.90
17033;DHT22;63208;52.178;21.016;2023-04-16T08:53:19;11.90;99.90
17033;DHT22;63208;52.178;21.016;2023-04-16T08:55:48;12.00;99.90
17033;DHT22;63208;52.178;21.016;2023-04-16T08:58:17;12.00;99.90
17033;DHT22;63208;52.178;21.016;2023-04-16T09:00:44;14.90;99.90
17033;DHT22;63208;52.178;21.016;2023-04-16T09:03:11;12.00;99.90
17033;DHT22;63208;52.178;21.016;2023-04-16T09:05:38;12.10;99.90
17033;DHT22;63208;52.178;21.016;2023-04-16T09:08:06;12.20;99.90
17033;DHT22;63208;52.178;21.016;2023-04-16T09:10:33;12.20;99.90
17033;DHT22;63208;52.178;21.016;2023-04-16T09:13:00;12.30;99.90
17033;DHT22;63208;52.178;21.016;2023-04-16T09:15:27;12.40;99.90
17033;DHT22;63208;52.178;21.016;2023-04-16T09:17:54;12.40;99.90
17033;DHT22;63208;52.178;21.016;2023-04-16T09:20:22;12.50;99.90
17033;DHT22;63208;52.178;21.016;2023-04-16T09:22:48;12.50;99.90
17033;DHT22;63208;52.178;21.016;2023-04-16T09:25:17;12.50;99.90
17033;DHT22;63208;52.178;21.016;2023-04-16T09:27:46;12.50;99.90
17033;DHT22;63208;52.178;21.016;2023-04-16T09:30:18;12.50;99.90
17033;DHT22;63208;52.178;21.016;2023-04-16T09:32:46;12.50;99.90
17033;DHT22;63208;52.178;21.016;2023-04-16T09:35:13;12.50;99.90
17033;DHT22;63208;52.178;21.016;2023-04-16T09:40:13;12.40;99.90
17033;DHT22;63208;52.178;21.016;2023-04-16T09:42:50;12.40;99.90
17033;DHT22;63208;52.178;21.016;2023-04-16T09:45:17;12.60;99.90
17033;DHT22;63208;52.178;21.016;2023-04-16T09:47:44;12.60;99.90
17033;DHT22;63208;52.178;21.016;2023-04-16T09:50:13;12.70;99.90
17033;DHT22;63208;52.178;21.016;2023-04-16T09:52:42;12.80;99.90
17033;DHT22;63208;52.178;21.016;2023-04-16T09:55:09;12.90;99.90
17033;DHT22;63208;52.178;21.016;2023-04-16T09:57:36;12.80;99.90
17033;DHT22;63208;52.178;21.016;2023-04-16T10:00:05;12.90;99.90
17033;DHT22;63208;52.178;21.016;2023-04-16T10:02:33;12.90;99.90
17033;DHT22;63208;52.178;21.016;2023-04-16T10:05:13;13.00;99.90
17033;DHT22;63208;52.178;21.016;2023-04-16T10:07:41;12.90;99.90
17033;DHT22;63208;52.178;21.016;2023-04-16T10:10:08;13.00;99.90
17033;DHT22;63208;52.178;21.016;2023-04-16T10:12:35;12.90;99.90
17033;DHT22;63208;52.178;21.016;2023-04-16T10:15:02;12.90;99.90
17033;DHT22;63208;52.178;21.016;2023-04-16T10:17:31;12.90;99.90
17033;DHT22;63208;52.178;21.016;2023-04-16T10:19:59;12.90;99.90
17033;DHT22;63208;52.178;21.016;2023-04-16T10:31:38;13.00;99.90
17033;DHT22;63208;52.178;21.016;2023-04-16T10:34:07;13.00;99.90
17033;DHT22;63208;52.178;21.016;2023-04-16T10:36:35;13.00;99.90
17033;DHT22;63208;52.178;21.016;2023-04-16T10:39:02;13.00;99.90
17033;DHT22;63208;52.178;21.016;2023-04-16T10:41:30;13.20;99.90
17033;DHT22;63208;52.178;21.016;2023-04-16T10:44:02;13.20;99.90
17033;DHT22;63208;52.178;21.016;2023-04-16T10:46:30;13.20;99.90
17033;DHT22;63208;52.178;21.016;2023-04-16T10:48:58;13.30;99.90
17033;DHT22;63208;52.178;21.016;2023-04-16T10:51:28;13.40;99.90
17033;DHT22;63208;52.178;21.016;2023-04-16T10:53:56;13.30;99.90
17033;DHT22;63208;52.178;21.016;2023-04-16T10:56:23;13.30;99.90
17033;DHT22;63208;52.178;21.016;2023-04-16T10:58:51;13.20;99.90
17033;DHT22;63208;52.178;21.016;2023-04-16T11:01:18;13.30;99.90
17033;DHT22;63208;52.178;21.016;2023-04-16T11:03:51;13.30;99.90
17033;DHT22;63208;52.178;21.016;2023-04-16T11:06:46;13.30;99.90
17033;DHT22;63208;52.178;21.016;2023-04-16T11:12:10;13.20;99.90
17033;DHT22;63208;52.178;21.016;2023-04-16T11:14:37;13.20;99.90
17033;DHT22;63208;52.178;21.016;2023-04-16T11:17:04;13.20;99.90
17033;DHT22;63208;52.178;21.016;2023-04-16T11:19:31;13.20;99.90
17033;DHT22;63208;52.178;21.016;2023-04-16T11:21:58;13.20;99.90
17033;DHT22;63208;52.178;21.016;2023-04-16T11:24:28;13.20;99.90
17033;DHT22;63208;52.178;21.016;2023-04-16T11:26:54;13.30;99.90
17033;DHT22;63208;52.178;21.016;2023-04-16T11:29:22;13.40;99.90
17033;DHT22;63208;52.178;21.016;2023-04-16T11:31:49;13.50;99.90
17033;DHT22;63208;52.178;21.016;2023-04-16T11:34:17;13.60;99.90
17033;DHT22;63208;52.178;21.016;2023-04-16T11:36:44;13.60;99.90
17033;DHT22;63208;52.178;21.016;2023-04-16T11:39:11;14.00;99.90
17033;DHT22;63208;52.178;21.016;2023-04-16T11:41:41;14.00;99.90
17033;DHT22;63208;52.178;21.016;2023-04-16T11:44:17;14.30;99.90
17033;DHT22;63208;52.178;21.016;2023-04-16T11:46:45;14.50;99.90
17033;DHT22;63208;52.178;21.016;2023-04-16T11:49:12;14.50;99.90
17033;DHT22;63208;52.178;21.016;2023-04-16T11:54:07;14.50;99.90
17033;DHT22;63208;52.178;21.016;2023-04-16T11:56:34;14.50;99.90
17033;DHT22;63208;52.178;21.016;2023-04-16T11:59:05;14.50;99.90
17033;DHT22;63208;52.178;21.016;2023-04-16T12:01:32;14.50;99.90
17033;DHT22;63208;52.178;21.016;2023-04-16T12:04:01;14.60;99.90
17033;DHT22;63208;52.178;21.016;2023-04-16T12:06:28;14.70;99.90
17033;DHT22;63208;52.178;21.016;2023-04-16T12:08:56;14.90;99.90
17033;DHT22;63208;52.178;21.016;2023-04-16T12:14:25;15.70;99.90
17033;DHT22;63208;52.178;21.016;2023-04-16T12:19:49;16.00;99.90
17033;DHT22;63208;52.178;21.016;2023-04-16T12:22:16;16.40;99.90
17033;DHT22;63208;52.178;21.016;2023-04-16T12:24:43;16.40;99.90
17033;DHT22;63208;52.178;21.016;2023-04-16T12:27:09;16.50;99.90
17033;DHT22;63208;52.178;21.016;2023-04-16T12:29:36;16.80;99.90
17033;DHT22;63208;52.178;21.016;2023-04-16T12:32:03;17.20;99.90
17033;DHT22;63208;52.178;21.016;2023-04-16T12:34:29;17.30;99.90
17033;DHT22;63208;52.178;21.016;2023-04-16T12:37:06;16.80;99.90
17033;DHT22;63208;52.178;21.016;2023-04-16T12:39:39;17.00;99.90
17033;DHT22;63208;52.178;21.016;2023-04-16T12:48:13;16.20;99.90
17033;DHT22;63208;52.178;21.016;2023-04-16T12:50:39;16.10;99.90
17033;DHT22;63208;52.178;21.016;2023-04-16T12:53:09;15.80;99.90
17033;DHT22;63208;52.178;21.016;2023-04-16T12:55:36;15.70;99.90
17033;DHT22;63208;52.178;21.016;2023-04-16T12:58:03;15.70;99.90
17033;DHT22;63208;52.178;21.016;2023-04-16T13:00:31;16.10;99.90
17033;DHT22;63208;52.178;21.016;2023-04-16T13:02:57;16.20;99.90
17033;DHT22;63208;52.178;21.016;2023-04-16T13:05:40;17.40;99.90
17033;DHT22;63208;52.178;21.016;2023-04-16T13:08:07;17.90;99.90
17033;DHT22;63208;52.178;21.016;2023-04-16T13:10:35;18.60;99.90
17033;DHT22;63208;52.178;21.016;2023-04-16T13:13:02;20.10;99.90
17033;DHT22;63208;52.178;21.016;2023-04-16T13:15:29;20.60;99.90
17033;DHT22;63208;52.178;21.016;2023-04-16T13:34:34;19.30;99.90
17033;DHT22;63208;52.178;21.016;2023-04-16T13:55:03;20.60;98.30
17033;DHT22;63208;52.178;21.016;2023-04-16T13:57:30;20.00;98.80
17033;DHT22;63208;52.178;21.016;2023-04-16T14:24:46;16.90;99.90
17033;DHT22;63208;52.178;21.016;2023-04-16T14:27:13;16.60;99.90
17033;DHT22;63208;52.178;21.016;2023-04-16T14:32:08;16.20;99.90
17033;DHT22;63208;52.178;21.016;2023-04-16T14:37:02;16.00;99.90
17033;DHT22;63208;52.178;21.016;2023-04-16T14:49:19;15.80;99.90
17033;DHT22;63208;52.178;21.016;2023-04-16T14:51:46;15.80;99.90
17033;DHT22;63208;52.178;21.016;2023-04-16T15:16:43;17.20;99.90
17033;DHT22;63208;52.178;21.016;2023-04-16T15:21:37;17.20;99.90
17033;DHT22;63208;52.178;21.016;2023-04-16T15:24:07;17.60;99.90
17033;DHT22;63208;52.178;21.016;2023-04-16T15:29:00;18.00;99.90
17033;DHT22;63208;52.178;21.016;2023-04-16T15:31:27;18.20;99.90
17033;DHT22;63208;52.178;21.016;2023-04-16T15:38:49;18.10;99.90
17033;DHT22;63208;52.178;21.016;2023-04-16T15:43:43;17.30;99.90
17033;DHT22;63208;52.178;21.016;2023-04-16T15:56:10;16.40;99.90
17033;DHT22;63208;52.178;21.016;2023-04-16T16:01:04;16.30;99.90
17033;DHT22;63208;52.178;21.016;2023-04-16T16:08:28;16.30;99.90
17033;DHT22;63208;52.178;21.016;2023-04-16T16:10:58;16.50;99.90
17033;DHT22;63208;52.178;21.016;2023-04-16T16:20:48;16.60;99.90
17033;DHT22;63208;52.178;21.016;2023-04-16T16:23:17;16.80;99.90
17033;DHT22;63208;52.178;21.016;2023-04-16T16:25:44;16.90;99.90
17033;DHT22;63208;52.178;21.016;2023-04-16T16:57:41;14.60;99.90
17033;DHT22;63208;52.178;21.016;2023-04-16T17:00:08;14.60;99.90
17033;DHT22;63208;52.178;21.016;2023-04-16T17:10:22;14.10;99.90
17033;DHT22;63208;52.178;21.016;2023-04-16T17:25:31;13.50;99.90
17033;DHT22;63208;52.178;21.016;2023-04-16T17:30:25;13.20;99.90
17033;DHT22;63208;52.178;21.016;2023-04-16T17:35:19;13.20;99.90
17033;DHT22;63208;52.178;21.016;2023-04-16T17:40:13;13.10;99.90
17033;DHT22;63208;52.178;21.016;2023-04-16T17:42:43;13.00;99.90
17033;DHT22;63208;52.178;21.016;2023-04-16T17:45:11;13.00;99.90
17033;DHT22;63208;52.178;21.016;2023-04-16T17:52:32;12.90;99.90
17033;DHT22;63208;52.178;21.016;2023-04-16T17:54:58;12.80;99.90
17033;DHT22;63208;52.178;21.016;2023-04-16T17:57:25;12.80;99.90
17033;DHT22;63208;52.178;21.016;2023-04-16T17:59:53;12.70;99.90
17033;DHT22;63208;52.178;21.016;2023-04-16T18:04:47;12.70;99.90
17033;DHT22;63208;52.178;21.016;2023-04-16T18:07:14;12.70;99.90
17033;DHT22;63208;52.178;21.016;2023-04-16T18:29:14;12.70;99.90
17033;DHT22;63208;52.178;21.016;2023-04-16T18:31:43;12.30;99.90
17033;DHT22;63208;52.178;21.016;2023-04-16T18:34:09;12.30;99.90
17033;DHT22;63208;52.178;21.016;2023-04-16T18:36:36;12.10;99.90
17033;DHT22;63208;52.178;21.016;2023-04-16T18:39:03;12.10;99.90
17033;DHT22;63208;52.178;21.016;2023-04-16T18:41:31;12.00;99.90
17033;DHT22;63208;52.178;21.016;2023-04-16T18:43:58;12.00;99.90
17033;DHT22;63208;52.178;21.016;2023-04-16T18:46:26;10.40;99.90
17033;DHT22;63208;52.178;21.016;2023-04-16T18:48:53;11.90;99.90
17033;DHT22;63208;52.178;21.016;2023-04-16T18:51:20;11.80;99.90
17033;DHT22;63208;52.178;21.016;2023-04-16T18:53:46;11.80;99.90
17033;DHT22;63208;52.178;21.016;2023-04-16T18:56:13;11.80;99.90
17033;DHT22;63208;52.178;21.016;2023-04-16T18:58:40;11.70;99.90
17033;DHT22;63208;52.178;21.016;2023-04-16T19:01:07;11.70;99.90
17033;DHT22;63208;52.178;21.016;2023-04-16T19:03:38;13.10;99.90
17033;DHT22;63208;52.178;21.016;2023-04-16T19:06:05;11.60;99.90
17033;DHT22;63208;52.178;21.016;2023-04-16T19:08:32;11.60;99.90
17033;DHT22;63208;52.178;21.016;2023-04-16T19:10:59;11.60;99.90
17033;DHT22;63208;52.178;21.016;2023-04-16T19:13:25;11.60;99.90
17033;DHT22;63208;52.178;21.016;2023-04-16T19:44:14;11.10;99.90
17033;DHT22;63208;52.178;21.016;2023-04-16T20:13:03;10.80;99.90
17033;DHT22;63208;52.178;21.016;2023-04-16T20:15:34;10.80;99.90
17033;DHT22;63208;52.178;21.016;2023-04-16T20:21:14;10.70;99.90
17033;DHT22;63208;52.178;21.016;2023-04-16T20:23:41;10.70;99.90
17033;DHT22;63208;52.178;21.016;2023-04-16T20:26:07;10.60;99.90
17033;DHT22;63208;52.178;21.016;2023-04-16T20:28:36;10.60;99.90
17033;DHT22;63208;52.178;21.016;2023-04-16T20:31:02;10.60;99.90